Time;durP1;ratioP1;P1;durP2;ratioP2;P2;SDS_P1;SDS_P2;PMS_P1;PMS_P2;Temp;Humidity;BMP_temperature;BMP_pressure;BME280_temperature;BME280_humidity;BME280_pressure;Samples;Min_cycle;Max_cycle;Signal;HPM_P1;HPM_P2
2023/03/25 00:01:12;;;;;;;1.58;0.80;;;9.90;93.80;;;;;;4995373;28;20058;-84
2023/03/25 00:03:43;;;;;;;2.92;0.50;;;10.00;93.80;;;;;;5015656;28;20045;-83
2023/03/25 00:06:15;;;;;;;2.88;0.60;;;10.00;93.80;;;;;;4991438;28;20403;-83
2023/03/25 00:08:42;;;;;;;3.78;0.75;;;10.00;93.80;;;;;;4979496;28;20049;-83
2023/03/25 00:11:09;;;;;;;5.32;0.80;;;9.90;93.80;;;;;;4946067;28;20050;-83
2023/03/25 00:13:36;;;;;;;3.75;0.60;;;9.90;93.80;;;;;;4959576;28;20483;-83
2023/03/25 00:16:06;;;;;;;5.63;0.80;;;9.90;93.80;;;;;;4991397;28;20054;-83
2023/03/25 00:18:32;;;;;;;1.27;0.40;;;9.90;93.80;;;;;;4965772;28;20466;-84
2023/03/25 00:21:01;;;;;;;2.65;0.57;;;9.90;93.90;;;;;;4982255;28;20137;-83
2023/03/25 00:23:30;;;;;;;1.13;0.40;;;9.90;93.90;;;;;;4981248;28;20053;-83
2023/03/25 00:26:00;;;;;;;3.28;0.50;;;9.90;93.90;;;;;;5003143;28;20053;-83
2023/03/25 00:28:33;;;;;;;2.67;0.68;;;9.90;93.90;;;;;;4982318;28;20053;-83
2023/03/25 00:31:02;;;;;;;1.73;0.40;;;9.90;94.00;;;;;;4999009;28;20141;-83
2023/03/25 00:33:30;;;;;;;4.28;0.50;;;9.90;94.00;;;;;;4984851;28;20046;-83
2023/03/25 00:35:59;;;;;;;1.65;0.50;;;9.90;94.00;;;;;;4982583;28;20046;-83
2023/03/25 00:38:36;;;;;;;1.80;0.40;;;9.90;94.00;;;;;;4998802;28;20406;-83
2023/03/25 00:41:12;;;;;;;2.17;0.40;;;9.90;94.00;;;;;;4991733;28;20077;-83
2023/03/25 00:43:43;;;;;;;3.67;0.80;;;9.90;94.00;;;;;;4998730;28;20088;-82
2023/03/25 00:46:10;;;;;;;3.33;0.70;;;9.90;93.90;;;;;;4966509;28;20465;-83
2023/03/25 00:48:38;;;;;;;2.95;0.60;;;9.90;93.80;;;;;;4998581;28;20038;-83
2023/03/25 00:51:08;;;;;;;3.78;0.90;;;9.90;93.70;;;;;;4951559;28;20046;-83
2023/03/25 00:53:36;;;;;;;4.32;0.90;;;10.00;94.10;;;;;;4953571;28;20465;-83
2023/03/25 00:56:04;;;;;;;3.08;0.80;;;10.00;93.70;;;;;;4984011;28;20050;-79
2023/03/25 00:58:31;;;;;;;4.22;0.80;;;9.90;93.60;;;;;;4971429;28;20046;-78
2023/03/25 01:00:58;;;;;;;3.08;1.20;;;10.00;93.70;;;;;;4998173;28;20045;-78
2023/03/25 01:03:27;;;;;;;4.95;1.30;;;9.90;93.50;;;;;;4965830;28;20046;-78
2023/03/25 01:05:56;;;;;;;4.07;0.60;;;9.90;93.50;;;;;;4982988;28;20494;-78
2023/03/25 01:08:24;;;;;;;5.90;1.30;;;9.90;93.60;;;;;;4993155;28;20046;-83
2023/03/25 01:10:55;;;;;;;5.40;0.88;;;9.90;93.60;;;;;;5001552;28;20120;-83
2023/03/25 01:13:23;;;;;;;4.10;0.70;;;9.90;93.60;;;;;;4963416;28;20466;-83
2023/03/25 01:15:53;;;;;;;3.53;0.75;;;9.90;93.60;;;;;;4991033;28;20034;-83
2023/03/25 01:18:20;;;;;;;3.70;1.08;;;9.90;93.60;;;;;;4978866;28;20038;-83
2023/03/25 01:20:47;;;;;;;3.78;0.95;;;9.90;93.60;;;;;;4977166;28;20061;-83
2023/03/25 01:23:17;;;;;;;4.18;1.13;;;9.90;93.60;;;;;;4983169;28;20093;-83
2023/03/25 01:25:44;;;;;;;5.18;1.05;;;9.90;93.50;;;;;;4982132;28;20041;-83
2023/03/25 01:28:11;;;;;;;6.07;0.68;;;9.90;93.50;;;;;;4981868;28;20046;-83
2023/03/25 01:30:38;;;;;;;4.40;1.10;;;9.90;93.50;;;;;;4987876;28;20500;-83
2023/03/25 01:33:05;;;;;;;5.85;1.70;;;9.90;93.40;;;;;;4971915;28;20128;-82
2023/03/25 01:35:32;;;;;;;3.65;1.15;;;9.90;93.30;;;;;;4981847;28;20048;-83
2023/03/25 01:37:59;;;;;;;9.95;1.55;;;9.90;93.20;;;;;;4988982;28;20138;-83
2023/03/25 01:40:27;;;;;;;4.80;0.70;;;9.90;93.10;;;;;;4982267;28;20042;-83
2023/03/25 01:42:54;;;;;;;3.10;0.70;;;9.90;93.00;;;;;;4981024;28;20046;-78
2023/03/25 01:45:31;;;;;;;5.72;1.02;;;9.90;93.00;;;;;;4964170;28;20096;-78
2023/03/25 01:48:09;;;;;;;9.65;1.60;;;9.90;93.00;;;;;;4988181;28;20053;-78
2023/03/25 01:50:39;;;;;;;6.45;1.38;;;9.90;92.90;;;;;;5005634;28;20056;-77
2023/03/25 01:53:12;;;;;;;5.75;0.65;;;9.90;92.90;;;;;;4986040;28;20052;-78
2023/03/25 01:55:39;;;;;;;4.30;0.60;;;9.90;92.90;;;;;;4996569;28;20072;-77
2023/03/25 01:58:11;;;;;;;7.65;1.10;;;9.90;92.90;;;;;;4971064;28;20061;-77
2023/03/25 02:00:43;;;;;;;5.00;1.40;;;9.90;92.80;;;;;;4993997;28;20049;-78
2023/03/25 02:03:12;;;;;;;5.35;0.77;;;9.90;92.70;;;;;;4979946;28;20049;-77
2023/03/25 02:06:02;;;;;;;3.05;0.60;;;9.90;92.70;;;;;;5008050;28;20050;-78
2023/03/25 02:08:36;;;;;;;3.38;0.57;;;9.90;92.70;;;;;;4974727;28;20053;-77
2023/03/25 02:11:05;;;;;;;4.57;0.73;;;9.80;92.90;;;;;;4994193;28;20053;-78
2023/03/25 02:13:35;;;;;;;4.13;0.63;;;9.60;93.20;;;;;;4968259;28;20129;-77
2023/03/25 02:16:20;;;;;;;2.38;0.55;;;9.50;93.50;;;;;;4966915;28;20046;-77
2023/03/25 02:19:00;;;;;;;5.10;0.52;;;9.40;93.70;;;;;;5002676;28;20099;-78
2023/03/25 02:21:45;;;;;;;4.47;0.60;;;9.40;94.00;;;;;;4999229;28;20046;-78
2023/03/25 02:24:42;;;;;;;4.13;0.80;;;9.30;94.10;;;;;;5001127;28;20046;-78
2023/03/25 02:27:32;;;;;;;3.63;0.80;;;9.20;94.30;;;;;;4995866;28;20141;-79
2023/03/25 02:30:29;;;;;;;3.50;0.70;;;9.10;94.50;;;;;;4980114;28;20053;-78
2023/03/25 02:33:15;;;;;;;2.55;0.60;;;9.00;94.70;;;;;;4973107;28;20073;-78
2023/03/25 02:36:13;;;;;;;4.18;1.27;;;9.00;94.80;;;;;;4979587;28;20046;-83
2023/03/25 02:39:10;;;;;;;6.25;1.27;;;9.00;95.00;;;;;;4978686;28;20037;-83
2023/03/25 02:41:51;;;;;;;3.55;1.83;;;8.90;95.10;;;;;;5002961;28;20078;-84
2023/03/25 02:44:39;;;;;;;4.88;1.10;;;8.90;95.30;;;;;;5011055;28;20115;-85
2023/03/25 02:47:14;;;;;;;4.57;1.00;;;8.80;95.50;;;;;;4993372;28;20133;-85
2023/03/25 02:49:55;;;;;;;3.83;1.00;;;8.70;95.70;;;;;;4996960;28;20053;-85
2023/03/25 02:52:39;;;;;;;6.22;1.48;;;8.70;95.90;;;;;;4981028;28;20041;-86
2023/03/25 02:55:10;;;;;;;4.07;1.00;;;8.70;96.60;;;;;;4996108;28;20057;-85
2023/03/25 02:57:41;;;;;;;5.50;1.37;;;8.60;96.50;;;;;;4992181;28;20072;-85
2023/03/25 03:00:14;;;;;;;6.75;1.40;;;8.60;96.70;;;;;;5008516;28;20037;-85
2023/03/25 03:02:45;;;;;;;4.28;1.20;;;8.60;96.70;;;;;;4989896;28;20042;-85
2023/03/25 03:05:25;;;;;;;5.82;1.48;;;8.60;96.80;;;;;;4977300;28;20523;-85
2023/03/25 03:08:34;;;;;;;4.80;1.45;;;8.50;96.80;;;;;;4994607;28;20046;-85
2023/03/25 03:11:09;;;;;;;3.80;1.38;;;8.50;96.90;;;;;;4945572;28;20061;-85
2023/03/25 03:14:07;;;;;;;3.33;1.02;;;8.50;96.90;;;;;;4980326;28;20042;-86
2023/03/25 03:16:40;;;;;;;4.53;1.30;;;8.50;96.90;;;;;;4996684;28;20057;-85
2023/03/25 03:19:45;;;;;;;3.33;0.88;;;8.50;97.00;;;;;;4979594;28;20409;-84
2023/03/25 03:22:34;;;;;;;5.40;0.98;;;8.50;97.00;;;;;;4985212;28;20050;-85
2023/03/25 03:25:18;;;;;;;6.10;1.38;;;8.50;97.10;;;;;;4980267;28;20592;-84
2023/03/25 03:27:52;;;;;;;3.42;1.30;;;8.50;97.20;;;;;;4988570;28;20537;-85
2023/03/25 03:30:47;;;;;;;2.97;1.00;;;8.40;97.30;;;;;;5004364;28;20054;-85
2023/03/25 03:33:26;;;;;;;4.35;1.33;;;8.50;97.40;;;;;;4980676;28;20625;-86
2023/03/25 03:36:12;;;;;;;4.90;1.10;;;8.40;97.40;;;;;;4980642;28;20042;-85
2023/03/25 03:38:45;;;;;;;4.38;1.15;;;8.40;97.40;;;;;;4998788;28;20042;-86
2023/03/25 03:41:18;;;;;;;2.80;1.45;;;8.40;97.50;;;;;;4969518;28;20438;-86
2023/03/25 03:43:50;;;;;;;5.28;1.70;;;8.40;97.50;;;;;;4986883;28;20133;-83
2023/03/25 03:46:29;;;;;;;4.07;1.35;;;8.40;97.50;;;;;;4995949;28;20537;-84
2023/03/25 03:49:03;;;;;;;5.53;1.67;;;8.40;97.50;;;;;;4985558;28;20050;-85
2023/03/25 03:51:37;;;;;;;2.88;1.40;;;8.40;97.70;;;;;;4988428;28;20048;-84
2023/03/25 03:54:19;;;;;;;3.63;1.10;;;8.40;97.70;;;;;;4971645;28;20050;-85
2023/03/25 03:57:04;;;;;;;4.72;1.45;;;8.40;97.70;;;;;;4989006;28;20050;-84
2023/03/25 03:59:38;;;;;;;2.80;1.02;;;8.40;97.90;;;;;;4988068;28;20046;-84
2023/03/25 04:02:33;;;;;;;7.70;2.15;;;8.40;97.90;;;;;;4980056;28;20153;-84
2023/03/25 04:05:00;;;;;;;2.88;1.17;;;8.40;97.90;;;;;;4981135;28;20046;-84
2023/03/25 04:07:40;;;;;;;3.78;0.95;;;8.40;97.90;;;;;;4967515;28;20057;-84
2023/03/25 04:10:28;;;;;;;6.10;1.52;;;8.40;97.90;;;;;;5001626;28;20058;-84
2023/03/25 04:13:02;;;;;;;7.22;1.55;;;8.40;97.90;;;;;;4982225;28;20468;-80
2023/03/25 04:15:30;;;;;;;6.25;1.35;;;8.40;98.00;;;;;;4998738;28;20037;-81
2023/03/25 04:18:00;;;;;;;6.00;1.05;;;8.40;98.00;;;;;;4970095;28;20065;-81
2023/03/25 04:20:35;;;;;;;5.15;1.30;;;8.40;98.00;;;;;;4987332;28;20073;-81
2023/03/25 04:23:08;;;;;;;3.70;1.20;;;8.40;98.00;;;;;;4965779;28;20050;-81
2023/03/25 04:25:35;;;;;;;5.57;1.48;;;8.50;98.00;;;;;;4982792;28;20050;-81
2023/03/25 04:28:03;;;;;;;5.40;1.92;;;8.50;98.10;;;;;;4982043;28;20050;-81
2023/03/25 04:30:32;;;;;;;8.18;1.80;;;8.50;98.10;;;;;;4966199;28;20149;-81
2023/03/25 04:33:02;;;;;;;4.72;1.50;;;8.50;98.10;;;;;;4981963;28;20042;-80
2023/03/25 04:35:31;;;;;;;4.07;1.70;;;8.50;98.10;;;;;;4950547;28;20080;-81
2023/03/25 04:38:02;;;;;;;5.68;1.27;;;8.50;98.10;;;;;;4956712;28;20128;-81
2023/03/25 04:40:29;;;;;;;4.05;1.83;;;8.50;98.00;;;;;;4998161;28;20385;-81
2023/03/25 04:42:56;;;;;;;3.50;1.20;;;8.60;98.00;;;;;;4964183;28;20418;-80
2023/03/25 04:45:24;;;;;;;9.63;2.42;;;8.50;98.00;;;;;;4968227;28;20119;-81
2023/03/25 04:47:53;;;;;;;6.40;1.33;;;8.50;98.00;;;;;;4981757;28;20104;-81
2023/03/25 04:50:28;;;;;;;7.32;1.35;;;8.50;97.90;;;;;;5008856;28;20053;-81
2023/03/25 04:52:59;;;;;;;4.05;1.08;;;8.50;97.90;;;;;;5007761;28;20057;-81
2023/03/25 04:55:26;;;;;;;6.13;1.50;;;8.50;97.90;;;;;;4966227;28;20644;-81
2023/03/25 04:57:55;;;;;;;3.78;0.98;;;8.50;97.90;;;;;;4981690;28;20057;-81
2023/03/25 05:00:26;;;;;;;7.28;1.00;;;8.50;98.00;;;;;;4966089;28;20038;-81
2023/03/25 05:02:55;;;;;;;5.68;1.02;;;8.50;98.00;;;;;;4997271;28;20073;-80
2023/03/25 05:05:25;;;;;;;7.65;1.92;;;8.50;98.00;;;;;;4981587;28;20054;-81
2023/03/25 05:07:56;;;;;;;4.70;1.35;;;8.50;98.00;;;;;;4982816;28;20081;-81
2023/03/25 05:10:29;;;;;;;7.78;1.40;;;8.50;97.90;;;;;;4997660;28;20050;-80
2023/03/25 05:13:07;;;;;;;6.25;2.33;;;8.50;97.90;;;;;;4981459;28;20141;-81
2023/03/25 05:15:38;;;;;;;7.90;1.65;;;8.60;97.80;;;;;;5003327;28;20077;-80
2023/03/25 05:18:11;;;;;;;4.10;1.05;;;8.60;97.80;;;;;;4993059;28;20128;-80
2023/03/25 05:20:41;;;;;;;5.30;1.15;;;8.60;97.70;;;;;;4982010;28;20057;-80
2023/03/25 05:23:15;;;;;;;5.55;1.55;;;8.60;97.70;;;;;;4990893;28;20046;-80
2023/03/25 05:25:44;;;;;;;4.53;1.00;;;8.70;97.60;;;;;;5014498;28;20066;-80
2023/03/25 05:28:12;;;;;;;3.83;0.82;;;8.70;97.60;;;;;;4999931;28;20137;-81
2023/03/25 05:30:41;;;;;;;6.30;1.50;;;8.70;97.50;;;;;;4970411;28;20157;-80
2023/03/25 05:33:14;;;;;;;5.95;1.23;;;8.80;97.40;;;;;;4980942;28;20140;-82
2023/03/25 05:35:42;;;;;;;4.95;1.40;;;8.80;97.30;;;;;;4984355;28;20041;-80
2023/03/25 05:38:17;;;;;;;7.35;2.00;;;8.80;97.20;;;;;;4977164;28;20042;-80
2023/03/25 05:40:47;;;;;;;8.32;2.10;;;8.90;97.10;;;;;;4981048;28;20042;-80
2023/03/25 05:43:15;;;;;;;6.90;1.88;;;8.90;96.90;;;;;;4980743;28;20494;-80
2023/03/25 05:45:43;;;;;;;7.97;1.60;;;8.90;96.90;;;;;;4959853;28;20050;-80
2023/03/25 05:48:11;;;;;;;8.45;1.77;;;8.90;96.70;;;;;;4996690;28;20145;-80
2023/03/25 05:50:41;;;;;;;4.55;1.30;;;8.90;96.60;;;;;;4996013;28;20038;-80
2023/03/25 05:53:14;;;;;;;6.30;1.98;;;8.90;96.60;;;;;;4978461;28;20038;-80
2023/03/25 05:55:46;;;;;;;9.23;1.95;;;8.90;96.50;;;;;;4981898;28;20042;-80
2023/03/25 05:58:13;;;;;;;4.95;1.75;;;8.90;96.50;;;;;;4979406;28;20061;-80
2023/03/25 06:00:41;;;;;;;3.92;1.45;;;8.90;96.50;;;;;;4960012;28;20085;-80
2023/03/25 06:03:09;;;;;;;4.30;1.23;;;8.90;96.50;;;;;;4980376;28;20479;-81
2023/03/25 06:05:40;;;;;;;5.13;1.52;;;8.90;96.60;;;;;;4980525;28;20100;-80
2023/03/25 06:08:07;;;;;;;5.15;1.95;;;9.00;96.50;;;;;;4964795;28;20096;-80
2023/03/25 06:10:34;;;;;;;5.18;1.52;;;9.00;96.50;;;;;;4959695;28;20056;-80
2023/03/25 06:13:01;;;;;;;6.55;1.85;;;8.90;96.50;;;;;;4963234;28;20417;-80
2023/03/25 06:15:32;;;;;;;4.10;1.42;;;8.90;96.50;;;;;;4976788;28;20088;-80
2023/03/25 06:17:59;;;;;;;6.63;2.28;;;8.90;96.50;;;;;;4962651;28;20121;-80
2023/03/25 06:20:30;;;;;;;5.93;1.33;;;8.90;96.50;;;;;;4979522;28;20030;-80
2023/03/25 06:23:00;;;;;;;8.00;1.70;;;8.90;96.60;;;;;;4980214;28;20120;-84
2023/03/25 06:25:31;;;;;;;8.70;2.15;;;8.80;96.70;;;;;;4977381;28;20049;-84
2023/03/25 06:28:02;;;;;;;7.30;2.20;;;8.70;96.90;;;;;;4980378;28;20046;-84
2023/03/25 06:30:29;;;;;;;6.85;2.15;;;8.60;97.10;;;;;;4980706;28;20104;-84
2023/03/25 06:33:01;;;;;;;7.22;1.73;;;8.60;97.20;;;;;;4990165;28;20053;-84
2023/03/25 06:35:29;;;;;;;6.00;2.08;;;8.60;97.30;;;;;;4994611;28;20597;-84
2023/03/25 06:37:58;;;;;;;4.90;1.95;;;8.60;97.40;;;;;;4984005;28;20040;-84
2023/03/25 06:40:31;;;;;;;6.63;3.67;;;8.60;97.50;;;;;;4995933;28;20084;-83
2023/03/25 06:43:01;;;;;;;8.95;2.67;;;8.60;97.50;;;;;;4965059;28;20586;-84
2023/03/25 06:46:03;;;;;;;7.55;3.10;;;8.60;97.60;;;;;;4990814;28;20057;-83
2023/03/25 06:48:48;;;;;;;5.63;2.17;;;8.60;97.60;;;;;;4979729;28;20133;-83
2023/03/25 06:51:15;;;;;;;10.00;2.55;;;8.60;97.60;;;;;;4986839;28;20070;-83
2023/03/25 06:53:42;;;;;;;7.53;2.42;;;8.60;97.50;;;;;;4954163;28;20037;-84
2023/03/25 06:56:10;;;;;;;6.70;2.45;;;8.60;97.50;;;;;;4964259;28;20050;-83
2023/03/25 06:58:40;;;;;;;8.60;2.70;;;8.60;97.50;;;;;;4964329;28;20471;-84
2023/03/25 07:01:10;;;;;;;10.27;2.90;;;8.70;97.40;;;;;;4976424;28;20046;-83
2023/03/25 07:03:37;;;;;;;8.75;2.97;;;8.70;97.30;;;;;;4992355;28;20074;-83
2023/03/25 07:06:05;;;;;;;6.72;2.05;;;8.70;97.30;;;;;;4995585;28;20141;-83
2023/03/25 07:08:33;;;;;;;8.77;2.85;;;8.80;97.20;;;;;;4970307;28;20050;-84
2023/03/25 07:11:02;;;;;;;7.57;2.60;;;8.80;97.10;;;;;;4963987;28;20042;-84
2023/03/25 07:13:30;;;;;;;8.88;2.63;;;8.90;97.00;;;;;;4980314;28;20045;-83
2023/03/25 07:15:58;;;;;;;10.02;2.67;;;8.90;96.90;;;;;;4964345;28;20475;-83
2023/03/25 07:18:26;;;;;;;8.05;2.03;;;9.00;96.80;;;;;;4980922;28;20115;-83
2023/03/25 07:20:56;;;;;;;8.98;2.60;;;9.10;96.60;;;;;;4997916;28;20034;-83
2023/03/25 07:23:24;;;;;;;13.52;2.92;;;9.20;96.30;;;;;;4977135;28;20051;-83
2023/03/25 07:25:51;;;;;;;10.27;3.00;;;9.30;96.10;;;;;;5002425;28;20038;-83
2023/03/25 07:28:20;;;;;;;8.48;2.10;;;9.30;96.00;;;;;;4997378;28;20100;-83
2023/03/25 07:30:47;;;;;;;10.38;2.75;;;9.20;96.00;;;;;;4966524;28;20060;-83
2023/03/25 07:33:15;;;;;;;6.75;1.60;;;9.20;95.90;;;;;;4966130;28;20084;-83
2023/03/25 07:35:42;;;;;;;8.68;2.55;;;9.10;96.10;;;;;;4976285;28;20108;-84
2023/03/25 07:38:09;;;;;;;7.45;2.20;;;8.90;96.30;;;;;;4966722;28;20122;-82
2023/03/25 07:40:37;;;;;;;8.90;2.53;;;8.80;96.50;;;;;;4974707;28;20406;-84
2023/03/25 07:43:04;;;;;;;11.95;2.58;;;8.70;96.80;;;;;;4997361;28;20141;-83
2023/03/25 07:45:54;;;;;;;14.70;3.10;;;8.70;96.80;;;;;;4989928;28;20560;-83
2023/03/25 07:48:22;;;;;;;9.18;2.53;;;8.60;97.00;;;;;;4983394;28;20136;-88
2023/03/25 07:50:51;;;;;;;10.50;3.00;;;8.60;97.10;;;;;;4988612;28;20042;-87
2023/03/25 07:53:18;;;;;;;14.65;3.25;;;8.70;97.20;;;;;;4993175;28;20046;-86
2023/03/25 07:55:51;;;;;;;10.30;2.55;;;8.70;97.20;;;;;;4994931;28;20046;-84
2023/03/25 07:58:19;;;;;;;10.70;2.67;;;8.60;97.30;;;;;;4989379;28;20046;-87
2023/03/25 08:00:46;;;;;;;9.00;2.72;;;8.60;97.50;;;;;;4983858;28;20104;-88
2023/03/25 08:03:14;;;;;;;11.48;3.50;;;8.60;97.50;;;;;;4983383;28;20076;-86
2023/03/25 08:05:48;;;;;;;11.50;2.58;;;8.70;97.60;;;;;;4967564;28;20092;-85
2023/03/25 08:08:15;;;;;;;10.95;3.30;;;8.70;97.50;;;;;;4983960;28;20049;-86
2023/03/25 08:10:45;;;;;;;8.20;2.35;;;8.80;97.60;;;;;;4987304;28;20045;-85
2023/03/25 08:13:12;;;;;;;11.32;2.67;;;8.80;97.60;;;;;;4983608;28;20077;-87
2023/03/25 08:15:42;;;;;;;9.90;2.92;;;8.80;97.50;;;;;;4991598;28;20038;-83
2023/03/25 08:18:10;;;;;;;17.60;3.10;;;8.80;97.50;;;;;;4985387;28;20398;-86
2023/03/25 08:20:37;;;;;;;7.97;2.80;;;8.70;97.60;;;;;;4971905;28;20045;-87
2023/03/25 08:23:09;;;;;;;8.45;2.45;;;8.70;97.80;;;;;;4981915;28;20046;-83
2023/03/25 08:25:37;;;;;;;14.40;2.45;;;8.60;98.10;;;;;;4968771;28;20081;-82
2023/03/25 08:28:05;;;;;;;8.77;2.30;;;8.60;98.30;;;;;;4970525;28;20100;-87
2023/03/25 08:30:38;;;;;;;11.32;3.33;;;8.60;98.30;;;;;;4996948;28;20061;-87
2023/03/25 08:33:07;;;;;;;12.25;2.33;;;8.70;98.30;;;;;;4991074;28;20050;-86
2023/03/25 08:35:36;;;;;;;6.68;2.15;;;8.90;98.30;;;;;;4981532;28;20073;-87
2023/03/25 08:38:05;;;;;;;15.57;2.20;;;9.00;98.20;;;;;;4990190;28;20061;-87
2023/03/25 08:40:35;;;;;;;10.98;2.75;;;9.10;98.10;;;;;;4999169;28;20050;-87
2023/03/25 08:43:04;;;;;;;7.47;1.90;;;9.20;98.10;;;;;;4998652;28;20100;-86
2023/03/25 08:45:33;;;;;;;7.03;2.20;;;9.30;98.00;;;;;;4998958;28;20092;-87
2023/03/25 08:48:01;;;;;;;10.45;2.83;;;9.40;97.90;;;;;;4966722;28;20060;-86
2023/03/25 08:50:29;;;;;;;11.98;3.45;;;9.40;97.80;;;;;;4982544;28;20041;-86
2023/03/25 08:52:58;;;;;;;14.68;2.45;;;9.50;97.50;;;;;;5003972;28;20046;-86
2023/03/25 08:55:25;;;;;;;11.27;1.75;;;9.50;97.40;;;;;;4982325;28;20442;-84
2023/03/25 08:57:52;;;;;;;14.48;3.47;;;9.60;97.40;;;;;;4987578;28;20173;-85
2023/03/25 09:00:23;;;;;;;9.48;2.92;;;9.80;97.10;;;;;;4966726;28;20300;-86
2023/03/25 09:02:50;;;;;;;14.23;2.58;;;9.80;96.90;;;;;;4983017;28;20046;-86
2023/03/25 09:05:18;;;;;;;13.85;2.70;;;10.00;96.80;;;;;;4998504;28;20111;-86
2023/03/25 09:07:45;;;;;;;6.75;2.28;;;10.00;96.70;;;;;;4979936;28;20051;-86
2023/03/25 09:10:13;;;;;;;10.05;2.30;;;10.00;96.60;;;;;;5010368;28;20993;-86
2023/03/25 09:12:40;;;;;;;10.98;2.22;;;9.90;96.50;;;;;;4994926;28;20065;-85
2023/03/25 09:15:11;;;;;;;10.95;2.45;;;9.70;97.00;;;;;;4972604;28;20133;-86
2023/03/25 09:17:39;;;;;;;17.30;2.40;;;9.50;97.20;;;;;;4998230;28;20142;-86
2023/03/25 09:20:07;;;;;;;10.85;2.03;;;9.40;97.50;;;;;;4992744;28;20073;-87
2023/03/25 09:22:38;;;;;;;7.95;1.92;;;9.30;97.70;;;;;;4948005;28;20046;-86
2023/03/25 09:25:08;;;;;;;9.88;2.17;;;9.30;97.90;;;;;;5002924;28;20050;-86
2023/03/25 09:27:38;;;;;;;7.78;1.95;;;9.40;98.00;;;;;;4998627;28;20058;-87
2023/03/25 09:30:07;;;;;;;14.55;3.13;;;9.40;98.00;;;;;;4976753;28;20095;-88
2023/03/25 09:32:34;;;;;;;10.82;2.40;;;9.50;97.80;;;;;;4975409;28;20073;-86
2023/03/25 09:35:07;;;;;;;9.48;1.83;;;9.50;97.70;;;;;;4964521;28;20042;-87
2023/03/25 09:37:34;;;;;;;10.32;2.42;;;9.40;97.80;;;;;;4949445;28;20161;-86
2023/03/25 09:40:03;;;;;;;10.13;2.75;;;9.30;97.90;;;;;;4975509;28;20392;-87
2023/03/25 09:42:48;;;;;;;7.38;1.90;;;9.20;98.10;;;;;;4947084;28;20050;-87
2023/03/25 09:46:06;;;;;;;20.42;4.00;;;9.20;98.30;;;;;;4963961;28;20069;-87
2023/03/25 09:48:46;;;;;;;10.52;3.38;;;9.20;98.40;;;;;;4977750;28;20043;-87
2023/03/25 09:51:20;;;;;;;17.80;3.83;;;9.30;98.60;;;;;;4978179;28;20429;-86
2023/03/25 09:53:57;;;;;;;11.95;3.00;;;9.50;98.60;;;;;;4971925;28;20038;-87
2023/03/25 09:56:34;;;;;;;13.98;3.30;;;9.70;98.40;;;;;;4962303;28;20048;-87
2023/03/25 09:59:16;;;;;;;14.10;2.80;;;9.70;98.00;;;;;;4974535;28;20047;-87
2023/03/25 10:01:59;;;;;;;16.85;3.25;;;9.50;98.20;;;;;;4962035;28;20050;-87
2023/03/25 10:05:00;;;;;;;11.25;3.10;;;9.50;98.50;;;;;;4977635;28;20133;-86
2023/03/25 10:07:28;;;;;;;13.57;3.22;;;9.60;98.80;;;;;;4977184;28;20042;-82
2023/03/25 10:10:18;;;;;;;13.65;3.40;;;9.70;98.70;;;;;;4962647;28;20153;-81
2023/03/25 10:12:56;;;;;;;;;;;9.90;98.50;;;;;;4976671;28;20050;-81
2023/03/25 10:16:02;;;;;;;16.50;2.55;;;10.00;98.60;;;;;;4985467;28;19925;-80
2023/03/25 10:19:04;;;;;;;15.25;2.50;;;10.40;98.30;;;;;;4971074;28;20096;-82
2023/03/25 10:21:34;;;;;;;18.17;3.25;;;10.50;97.60;;;;;;4974326;28;20053;-82
2023/03/25 10:24:26;;;;;;;13.38;2.78;;;10.50;97.30;;;;;;4972518;28;20058;-81
2023/03/25 10:27:12;;;;;;;19.65;3.60;;;10.60;96.90;;;;;;4974129;28;20038;-81
2023/03/25 10:29:50;;;;;;;16.08;2.53;;;10.70;96.70;;;;;;4965791;28;20503;-81
2023/03/25 10:32:28;;;;;;;13.00;2.70;;;10.70;96.60;;;;;;4974905;28;20073;-81
2023/03/25 10:34:56;;;;;;;17.63;3.13;;;10.70;96.50;;;;;;5010601;28;20042;-81
2023/03/25 10:37:40;;;;;;;12.95;2.40;;;10.60;96.30;;;;;;4989914;28;20066;-81
2023/03/25 10:40:22;;;;;;;16.48;2.65;;;10.50;96.60;;;;;;4967844;28;20043;-81
2023/03/25 10:43:03;;;;;;;16.05;3.03;;;10.40;96.80;;;;;;4979631;28;20098;-82
2023/03/25 10:45:31;;;;;;;14.63;2.53;;;10.30;96.90;;;;;;4995181;28;20042;-82
2023/03/25 10:48:26;;;;;;;13.40;2.20;;;10.10;97.20;;;;;;4997367;28;20042;-82
2023/03/25 10:51:29;;;;;;;12.95;2.50;;;10.00;97.70;;;;;;4983977;28;20049;-81
2023/03/25 10:54:00;;;;;;;16.52;3.50;;;10.00;97.90;;;;;;4995919;28;20046;-83
2023/03/25 10:56:35;;;;;;;19.80;3.13;;;10.00;98.00;;;;;;5004673;28;20042;-83
2023/03/25 10:59:29;;;;;;;13.73;2.75;;;9.90;98.10;;;;;;4993804;28;20324;-83
2023/03/25 11:01:58;;;;;;;17.50;3.13;;;9.80;98.20;;;;;;5009531;28;20084;-83
2023/03/25 11:04:36;;;;;;;13.00;2.65;;;9.70;98.40;;;;;;4990760;28;20050;-83
2023/03/25 11:07:15;;;;;;;12.05;2.63;;;9.70;98.50;;;;;;5004973;28;20054;-83
2023/03/25 11:09:46;;;;;;;18.63;2.90;;;9.80;98.60;;;;;;4984341;28;20052;-83
2023/03/25 11:12:20;;;;;;;21.00;3.15;;;9.80;98.50;;;;;;4988097;28;20136;-84
2023/03/25 11:15:00;;;;;;;13.50;2.92;;;9.90;98.50;;;;;;5008089;28;20050;-83
2023/03/25 11:17:28;;;;;;;14.52;3.25;;;9.80;98.60;;;;;;4977176;28;20101;-83
2023/03/25 11:20:00;;;;;;;13.05;2.70;;;9.90;98.70;;;;;;4995486;28;20073;-83
2023/03/25 11:22:35;;;;;;;12.60;2.38;;;10.00;98.60;;;;;;4995125;28;20042;-83
2023/03/25 11:25:11;;;;;;;17.00;2.72;;;10.00;98.50;;;;;;4979383;28;20137;-83
2023/03/25 11:27:57;;;;;;;16.60;3.20;;;10.00;98.20;;;;;;4994918;28;20121;-83
2023/03/25 11:30:27;;;;;;;9.88;1.85;;;10.00;98.30;;;;;;4988544;28;20046;-84
2023/03/25 11:33:16;;;;;;;9.20;2.80;;;9.90;98.40;;;;;;4994020;28;20058;-83
2023/03/25 11:35:47;;;;;;;12.20;1.67;;;9.80;98.50;;;;;;4987603;28;20043;-84
2023/03/25 11:38:27;;;;;;;10.75;1.30;;;9.70;98.60;;;;;;4965725;28;20049;-84
2023/03/25 11:41:00;;;;;;;9.60;1.90;;;9.70;98.80;;;;;;4990214;28;20375;-83
2023/03/25 11:43:34;;;;;;;;;;;9.80;98.90;;;;;;4984056;28;20454;-83
2023/03/25 11:46:18;;;;;;;17.27;1.60;;;9.80;98.90;;;;;;4995162;28;19921;-83
2023/03/25 11:48:46;;;;;;;13.35;2.97;;;10.00;98.70;;;;;;4976100;28;20046;-83
2023/03/25 11:51:21;;;;;;;9.25;1.30;;;10.10;98.50;;;;;;4989309;28;20050;-83
2023/03/25 11:53:57;;;;;;;9.90;2.08;;;10.20;97.80;;;;;;4993403;28;20053;-83
2023/03/25 11:56:37;;;;;;;15.15;1.60;;;10.20;96.70;;;;;;4970776;28;20145;-83
2023/03/25 11:59:20;;;;;;;10.05;1.45;;;10.30;96.20;;;;;;4989300;28;20096;-83
2023/03/25 12:01:49;;;;;;;12.05;2.30;;;10.60;96.20;;;;;;4996551;28;20397;-83
2023/03/25 12:04:21;;;;;;;12.95;1.80;;;10.70;95.40;;;;;;4981443;28;20046;-83
2023/03/25 12:07:00;;;;;;;10.32;1.02;;;10.90;95.10;;;;;;4978867;28;20060;-82
2023/03/25 12:09:30;;;;;;;12.45;1.42;;;11.00;94.50;;;;;;4988059;28;20050;-83
2023/03/25 12:12:16;;;;;;;9.98;1.55;;;11.10;93.80;;;;;;4994375;28;20072;-83
2023/03/25 12:15:12;;;;;;;7.85;1.42;;;11.20;93.30;;;;;;4981999;28;20049;-83
2023/03/25 12:17:57;;;;;;;13.23;1.70;;;11.30;92.80;;;;;;4996931;28;20080;-83
2023/03/25 12:20:32;;;;;;;12.48;1.42;;;11.30;92.40;;;;;;4996482;28;20038;-82
2023/03/25 12:23:18;;;;;;;9.88;1.50;;;11.40;92.80;;;;;;4987241;28;20132;-82
2023/03/25 12:26:05;;;;;;;6.03;1.42;;;11.50;92.40;;;;;;4996012;28;20133;-82
2023/03/25 12:28:58;;;;;;;11.15;1.40;;;11.50;92.50;;;;;;4998029;28;20429;-83
2023/03/25 12:31:49;;;;;;;8.73;1.30;;;11.50;92.70;;;;;;4971024;28;20451;-82
2023/03/25 12:34:39;;;;;;;10.85;2.78;;;11.40;92.10;;;;;;4962385;28;20093;-82
2023/03/25 12:37:25;;;;;;;9.23;1.42;;;11.30;92.10;;;;;;4985914;28;20517;-85
2023/03/25 12:40:06;;;;;;;9.55;1.27;;;11.20;92.20;;;;;;4975396;28;20094;-82
2023/03/25 12:43:09;;;;;;;11.00;1.05;;;11.10;92.30;;;;;;4986650;28;20054;-83
2023/03/25 12:45:42;;;;;;;;;;;11.20;92.30;;;;;;4975553;28;20384;-84
2023/03/25 12:48:12;;;;;;;;;;;11.10;92.30;;;;;;4972185;28;19922;-86
2023/03/25 12:51:10;;;;;;;4.43;1.25;;;11.10;92.50;;;;;;4962907;28;20362;-85
2023/03/25 12:54:08;;;;;;;7.60;1.30;;;10.90;92.70;;;;;;4963561;28;20054;-86
2023/03/25 12:56:43;;;;;;;10.38;1.10;;;10.50;93.50;;;;;;4964013;28;20054;-88
2023/03/25 12:59:16;;;;;;;5.70;0.82;;;10.00;94.50;;;;;;4974609;28;20137;-84
2023/03/25 13:02:08;;;;;;;4.93;0.82;;;9.70;95.30;;;;;;4969853;28;20054;-83
2023/03/25 13:05:03;;;;;;;2.63;0.55;;;9.40;96.00;;;;;;4977033;28;20047;-83
2023/03/25 13:07:43;;;;;;;6.32;0.82;;;9.00;96.70;;;;;;4975963;28;20073;-85
2023/03/25 13:10:15;;;;;;;7.90;0.93;;;8.90;97.20;;;;;;4975275;28;20086;-83
2023/03/25 13:12:56;;;;;;;7.75;1.02;;;8.90;97.50;;;;;;4973211;28;20047;-83
2023/03/25 13:15:39;;;;;;;7.43;0.73;;;9.00;97.70;;;;;;4959593;28;20049;-84
2023/03/25 13:18:23;;;;;;;6.95;1.08;;;9.20;97.90;;;;;;4994562;28;20050;-84
2023/03/25 13:21:04;;;;;;;9.38;1.42;;;9.40;97.90;;;;;;4978715;28;20065;-84
2023/03/25 13:23:46;;;;;;;9.50;1.13;;;9.70;97.80;;;;;;4971929;28;20093;-83
2023/03/25 13:26:20;;;;;;;9.82;1.88;;;10.00;97.50;;;;;;4961517;28;20054;-83
2023/03/25 13:29:02;;;;;;;6.85;0.95;;;10.20;97.10;;;;;;4984367;28;20042;-83
2023/03/25 13:31:41;;;;;;;8.90;1.90;;;10.30;96.80;;;;;;4972961;28;20050;-83